Time;durP1;ratioP1;P1;durP2;ratioP2;P2;SDS_P1;SDS_P2;PMS_P1;PMS_P2;Temp;Humidity;BMP_temperature;BMP_pressure;BME280_temperature;BME280_humidity;BME280_pressure;Samples;Min_cycle;Max_cycle;Signal;HPM_P1;HPM_P2
2022/05/25 00:00:43;;;;;;;5.17;4.67;;;20.80;99.90;;;;;;6298902;28;20227;-66
2022/05/25 00:03:46;;;;;;;4.60;4.30;;;20.80;99.90;;;;;;6298402;28;20238;-66
2022/05/25 00:06:50;;;;;;;5.67;5.17;;;20.80;99.90;;;;;;6298955;28;20313;-66
2022/05/25 00:09:53;;;;;;;6.97;6.37;;;20.80;99.90;;;;;;6290338;28;20567;-66
2022/05/25 00:12:58;;;;;;;6.73;6.23;;;20.80;99.90;;;;;;6298306;28;20235;-65
2022/05/25 00:16:01;;;;;;;7.03;6.40;;;20.80;99.90;;;;;;6300015;28;20226;-65
2022/05/25 00:22:26;;;;;;;8.50;7.80;;;20.80;99.90;;;;;;6296533;28;20245;-65
2022/05/25 00:25:33;;;;;;;10.33;7.40;;;20.60;99.90;;;;;;6297664;28;20230;-66
2022/05/25 00:28:38;;;;;;;7.83;7.23;;;20.50;99.90;;;;;;6299368;28;20223;-66
2022/05/25 00:31:41;;;;;;;7.63;7.00;;;20.50;99.90;;;;;;6298756;28;20230;-65
2022/05/25 00:34:45;;;;;;;7.40;6.70;;;20.50;99.90;;;;;;6299595;28;20268;-65
2022/05/25 00:37:49;;;;;;;7.33;6.83;;;20.60;99.90;;;;;;6299451;28;20667;-65
2022/05/25 00:40:52;;;;;;;6.90;6.40;;;20.50;99.90;;;;;;6299596;28;20231;-66
2022/05/25 00:43:59;;;;;;;6.40;5.90;;;20.50;99.90;;;;;;6299420;28;20238;-65
2022/05/25 00:51:15;;;;;;;5.13;4.63;;;20.50;99.90;;;;;;6299449;28;20199;-65
2022/05/25 00:54:22;;;;;;;6.90;5.57;;;20.60;99.90;;;;;;6303200;28;20233;-65
2022/05/25 00:57:30;;;;;;;5.63;5.13;;;20.70;99.90;;;;;;6305330;28;20237;-65
2022/05/25 01:00:35;;;;;;;5.03;4.70;;;20.70;99.90;;;;;;6306313;28;20234;-65
2022/05/25 01:03:38;;;;;;;5.20;4.70;;;20.70;99.90;;;;;;6304277;28;20246;-65
2022/05/25 01:06:52;;;;;;;7.53;6.23;;;20.60;99.90;;;;;;6304050;28;20234;-66
2022/05/25 01:10:09;;;;;;;8.60;7.87;;;20.50;99.90;;;;;;6302858;28;20246;-66
2022/05/25 01:13:20;;;;;;;7.10;6.60;;;20.50;99.90;;;;;;6298574;28;20246;-65
2022/05/25 01:16:31;;;;;;;7.80;7.17;;;20.50;99.90;;;;;;6302373;28;20238;-65
2022/05/25 01:20:12;;;;;;;7.97;7.27;;;20.60;99.90;;;;;;6303588;28;20310;-66
2022/05/25 01:23:45;;;;;;;7.73;7.10;;;20.50;99.90;;;;;;6298874;28;20242;-66
2022/05/25 01:27:21;;;;;;;9.37;8.67;;;20.40;99.90;;;;;;6301981;28;20235;-66
2022/05/25 01:30:30;;;;;;;7.43;6.93;;;20.30;99.90;;;;;;6298590;28;20229;-66
2022/05/25 01:33:39;;;;;;;7.90;7.30;;;20.20;99.90;;;;;;6304030;28;20238;-65
2022/05/25 01:36:48;;;;;;;8.10;7.50;;;20.30;99.90;;;;;;6302732;28;20231;-66
2022/05/25 01:39:59;;;;;;;6.97;6.40;;;20.30;99.90;;;;;;6302561;28;20239;-66
2022/05/25 01:43:07;;;;;;;8.20;7.33;;;20.30;99.90;;;;;;6301508;28;20245;-65
2022/05/25 01:46:16;;;;;;;7.60;7.00;;;20.30;99.90;;;;;;6301516;28;20223;-65
2022/05/25 01:49:23;;;;;;;7.80;7.20;;;20.30;99.90;;;;;;6301373;28;20246;-66
2022/05/25 01:52:40;;;;;;;8.10;7.30;;;20.30;99.90;;;;;;6301703;28;20239;-65
2022/05/25 01:55:48;;;;;;;7.40;6.87;;;20.30;99.90;;;;;;6302847;28;20223;-66
2022/05/25 01:58:57;;;;;;;8.13;7.37;;;20.30;99.90;;;;;;6303078;28;20236;-66
2022/05/25 02:05:25;;;;;;;9.17;8.53;;;20.20;99.90;;;;;;6301675;28;20245;-65
2022/05/25 02:08:41;;;;;;;9.67;8.90;;;20.20;99.90;;;;;;6301539;28;20231;-66
2022/05/25 02:11:47;;;;;;;9.70;8.87;;;20.20;99.90;;;;;;6302582;28;20704;-65
2022/05/25 02:14:58;;;;;;;10.93;10.07;;;20.10;99.90;;;;;;6302300;28;20231;-65
2022/05/25 02:18:07;;;;;;;10.57;9.57;;;20.10;99.90;;;;;;6297393;28;20223;-65
2022/05/25 02:21:17;;;;;;;11.30;10.40;;;20.20;99.90;;;;;;6302218;28;20239;-65
2022/05/25 02:24:29;;;;;;;10.57;5.87;;;20.10;99.90;;;;;;6301818;28;20702;-65
2022/05/25 02:27:41;;;;;;;5.00;4.40;;;19.90;99.90;;;;;;6302121;28;20235;-66
2022/05/25 02:30:49;;;;;;;4.80;4.40;;;19.50;99.90;;;;;;6301951;28;20246;-66
2022/05/25 02:33:58;;;;;;;4.30;3.90;;;19.30;99.90;;;;;;6301578;28;20239;-65
2022/05/25 02:37:02;;;;;;;4.90;3.67;;;19.30;99.90;;;;;;6300522;28;20242;-66
2022/05/25 02:40:09;;;;;;;6.07;4.53;;;19.20;99.90;;;;;;6300146;28;20226;-66
2022/05/25 02:43:12;;;;;;;4.33;3.53;;;19.10;99.90;;;;;;6299981;28;20235;-65
2022/05/25 02:46:15;;;;;;;4.20;3.90;;;19.00;99.90;;;;;;6300100;28;20227;-66
2022/05/25 02:49:20;;;;;;;4.33;4.03;;;19.00;99.90;;;;;;6299917;28;20230;-66
2022/05/25 02:52:23;;;;;;;4.90;4.50;;;19.10;99.90;;;;;;6301287;28;20262;-65
2022/05/25 02:55:26;;;;;;;5.77;5.27;;;19.20;99.90;;;;;;6301588;28;20561;-65
2022/05/25 02:58:30;;;;;;;6.60;4.87;;;19.20;99.90;;;;;;6301102;28;20581;-65
2022/05/25 03:01:33;;;;;;;4.63;4.20;;;19.10;99.90;;;;;;6300646;28;20543;-65
2022/05/25 03:04:40;;;;;;;4.83;4.40;;;19.00;99.90;;;;;;6300618;28;20223;-66
2022/05/25 03:07:43;;;;;;;5.00;4.60;;;18.90;99.90;;;;;;6301258;28;20313;-66
2022/05/25 03:10:47;;;;;;;5.40;4.90;;;18.80;99.90;;;;;;6301265;28;20223;-66
2022/05/25 03:13:50;;;;;;;5.20;4.70;;;18.70;99.90;;;;;;6300846;28;20572;-65
2022/05/25 03:16:53;;;;;;;4.10;3.80;;;18.60;99.90;;;;;;6299796;28;20672;-65
2022/05/25 03:19:58;;;;;;;4.83;4.43;;;18.60;99.90;;;;;;6300953;28;20703;-66
2022/05/25 03:23:01;;;;;;;4.90;4.50;;;18.50;99.90;;;;;;6291704;28;20246;-66
2022/05/25 03:26:05;;;;;;;6.40;4.40;;;18.50;99.90;;;;;;6300716;28;20231;-66
2022/05/25 03:29:09;;;;;;;5.07;4.67;;;18.40;99.90;;;;;;6300417;28;20695;-66
2022/05/25 03:32:12;;;;;;;5.27;4.87;;;18.40;99.90;;;;;;6300469;28;20686;-66
2022/05/25 03:35:17;;;;;;;4.20;3.80;;;18.40;99.90;;;;;;6300470;28;20227;-66
2022/05/25 03:38:20;;;;;;;5.00;4.60;;;18.30;99.90;;;;;;6300474;28;21004;-66
2022/05/25 03:41:23;;;;;;;4.90;4.50;;;18.10;99.90;;;;;;6299988;28;20232;-65
2022/05/25 03:44:26;;;;;;;5.70;5.10;;;18.00;99.90;;;;;;6300117;28;20234;-65
2022/05/25 03:47:29;;;;;;;4.90;4.50;;;18.00;99.90;;;;;;6300346;28;20223;-65
2022/05/25 03:50:34;;;;;;;5.50;5.00;;;18.10;99.90;;;;;;6299997;28;20469;-65
2022/05/25 03:53:38;;;;;;;5.50;5.10;;;18.20;99.90;;;;;;6299938;28;20468;-65
2022/05/25 03:56:41;;;;;;;5.20;4.17;;;18.30;99.90;;;;;;6299746;28;20474;-65
2022/05/25 03:59:45;;;;;;;5.37;4.87;;;18.30;99.90;;;;;;6300204;28;20477;-65
2022/05/25 04:02:49;;;;;;;5.20;4.80;;;18.40;99.90;;;;;;6299989;28;20584;-65
2022/05/25 04:05:53;;;;;;;5.30;4.80;;;18.40;99.90;;;;;;6299959;28;20550;-66
2022/05/25 04:08:57;;;;;;;5.10;4.40;;;18.50;99.90;;;;;;6299664;28;20227;-66
2022/05/25 04:12:00;;;;;;;6.70;5.67;;;18.60;99.90;;;;;;6299834;28;20476;-66
2022/05/25 04:15:03;;;;;;;5.27;4.80;;;18.70;99.90;;;;;;6299959;28;20213;-67
2022/05/25 04:18:07;;;;;;;4.83;3.50;;;18.80;99.90;;;;;;6299865;28;20290;-66
2022/05/25 04:21:11;;;;;;;4.30;3.20;;;18.80;99.90;;;;;;6299599;28;20691;-65
2022/05/25 04:24:16;;;;;;;3.57;3.27;;;18.90;99.90;;;;;;6291089;28;20218;-66
2022/05/25 04:27:20;;;;;;;3.10;2.30;;;18.90;99.90;;;;;;6300038;28;20660;-66
2022/05/25 04:30:25;;;;;;;5.70;2.60;;;18.90;99.90;;;;;;6303129;28;20672;-67
2022/05/25 04:33:29;;;;;;;2.23;1.70;;;19.00;99.90;;;;;;6303281;28;20615;-66
2022/05/25 04:36:33;;;;;;;4.93;1.70;;;19.10;99.90;;;;;;6302888;28;20254;-67
2022/05/25 04:39:36;;;;;;;1.33;1.23;;;19.10;99.90;;;;;;6303044;28;20237;-66
2022/05/25 04:42:40;;;;;;;3.60;2.07;;;19.10;99.90;;;;;;6303145;28;20245;-66
2022/05/25 04:45:45;;;;;;;1.70;1.23;;;19.10;99.90;;;;;;6304448;28;20231;-66
2022/05/25 04:48:48;;;;;;;4.83;1.43;;;19.20;99.90;;;;;;6304080;28;20810;-66
2022/05/25 04:51:52;;;;;;;1.60;1.40;;;19.20;99.90;;;;;;6304732;28;20238;-66
2022/05/25 04:54:56;;;;;;;9.20;1.90;;;19.20;99.90;;;;;;6303484;28;20233;-66
2022/05/25 04:57:58;;;;;;;7.13;2.53;;;19.30;99.90;;;;;;6303045;28;20231;-66
2022/05/25 05:01:02;;;;;;;5.97;2.10;;;19.30;99.90;;;;;;6304467;28;20235;-66
2022/05/25 05:04:05;;;;;;;5.00;2.37;;;19.30;99.90;;;;;;6304724;28;20566;-66
2022/05/25 05:07:10;;;;;;;5.93;2.40;;;19.40;99.90;;;;;;6304096;28;20692;-66
2022/05/25 05:10:14;;;;;;;8.20;3.10;;;19.50;99.90;;;;;;6303925;28;20242;-66
2022/05/25 05:13:18;;;;;;;5.33;1.90;;;19.50;99.90;;;;;;6303964;28;20227;-67
2022/05/25 05:16:21;;;;;;;5.10;2.20;;;19.50;99.90;;;;;;6303609;28;20231;-66
2022/05/25 05:19:24;;;;;;;5.37;2.00;;;19.60;99.90;;;;;;6303956;28;20245;-66
2022/05/25 05:22:30;;;;;;;4.40;2.40;;;19.80;99.90;;;;;;6303413;28;20287;-66
2022/05/25 05:25:35;;;;;;;3.60;2.20;;;19.90;99.90;;;;;;6303733;28;20223;-66
2022/05/25 05:28:41;;;;;;;5.70;1.97;;;20.00;99.90;;;;;;6298543;28;20231;-67
2022/05/25 05:31:45;;;;;;;6.50;2.00;;;20.20;99.90;;;;;;6302804;28;20272;-66
2022/05/25 05:34:48;;;;;;;5.30;2.10;;;20.40;99.90;;;;;;6303185;28;20231;-66
2022/05/25 05:37:55;;;;;;;3.47;1.70;;;20.60;99.90;;;;;;6303186;28;20242;-66
2022/05/25 05:40:58;;;;;;;6.23;2.27;;;20.70;99.90;;;;;;6302021;28;20231;-66
2022/05/25 05:44:04;;;;;;;1.97;1.57;;;21.00;99.90;;;;;;6302955;28;20246;-66
2022/05/25 05:47:12;;;;;;;5.43;1.70;;;21.00;99.90;;;;;;6303554;28;20567;-62
2022/05/25 05:50:15;;;;;;;2.43;1.40;;;21.00;99.90;;;;;;6302989;28;20231;-62
2022/05/25 05:53:20;;;;;;;4.20;1.60;;;21.10;99.90;;;;;;6303059;28;20684;-62
2022/05/25 05:56:23;;;;;;;2.70;1.90;;;21.20;99.90;;;;;;6303036;28;20235;-62
2022/05/25 05:59:27;;;;;;;2.67;1.70;;;21.50;99.90;;;;;;6302280;28;20325;-62
2022/05/25 06:02:30;;;;;;;3.93;1.87;;;21.80;99.90;;;;;;6301986;28;20239;-62
2022/05/25 06:05:34;;;;;;;3.43;1.73;;;21.80;99.90;;;;;;6302138;28;20226;-61
2022/05/25 06:08:38;;;;;;;2.97;1.47;;;21.70;99.90;;;;;;6302339;28;20759;-61
2022/05/25 06:11:42;;;;;;;6.13;1.80;;;21.60;99.90;;;;;;6302253;28;20237;-62
2022/05/25 06:14:46;;;;;;;6.70;1.97;;;21.60;99.90;;;;;;6302125;28;20638;-62
2022/05/25 06:21:10;;;;;;;4.23;1.77;;;21.50;99.90;;;;;;6301421;28;20527;-62
2022/05/25 06:24:15;;;;;;;3.90;1.87;;;21.40;99.90;;;;;;6302459;28;20188;-62
2022/05/25 06:27:20;;;;;;;2.77;1.97;;;21.30;99.90;;;;;;6302702;28;20223;-62
2022/05/25 06:30:24;;;;;;;4.40;2.03;;;21.30;99.90;;;;;;6302283;28;20232;-62
2022/05/25 06:33:28;;;;;;;2.87;1.80;;;21.30;99.90;;;;;;6297752;28;20259;-62
2022/05/25 06:36:38;;;;;;;3.10;1.80;;;21.50;99.90;;;;;;6301674;28;20684;-62
2022/05/25 06:39:42;;;;;;;5.90;2.10;;;21.60;99.90;;;;;;6301567;28;20242;-62
2022/05/25 06:42:46;;;;;;;3.20;1.70;;;21.70;99.90;;;;;;6301429;28;20231;-62
2022/05/25 06:45:49;;;;;;;4.90;2.20;;;21.80;99.90;;;;;;6301514;28;20230;-62
2022/05/25 06:48:54;;;;;;;4.57;2.10;;;21.80;99.90;;;;;;6301607;28;20230;-62
2022/05/25 06:51:57;;;;;;;3.50;2.07;;;21.90;99.90;;;;;;6300461;28;20566;-61
2022/05/25 06:55:02;;;;;;;3.00;2.20;;;22.10;99.90;;;;;;6301585;28;20687;-61
2022/05/25 06:58:05;;;;;;;3.40;2.27;;;22.20;99.90;;;;;;6301729;28;20695;-61
2022/05/25 07:01:08;;;;;;;4.40;2.40;;;22.20;99.90;;;;;;6300928;28;20558;-61
2022/05/25 07:04:12;;;;;;;3.40;2.20;;;22.20;99.90;;;;;;6301248;28;20233;-61
2022/05/25 07:07:15;;;;;;;2.33;2.13;;;22.30;99.90;;;;;;6301290;28;20227;-61
2022/05/25 07:10:20;;;;;;;3.30;2.60;;;22.20;99.90;;;;;;6300840;28;20545;-61
2022/05/25 07:13:25;;;;;;;3.13;2.63;;;22.40;99.90;;;;;;6300836;28;20241;-59
2022/05/25 07:16:28;;;;;;;2.23;2.03;;;22.70;99.90;;;;;;6301883;28;20642;-61
2022/05/25 07:19:32;;;;;;;4.20;2.50;;;23.10;99.90;;;;;;6300925;28;20237;-61
2022/05/25 07:22:35;;;;;;;3.33;3.10;;;24.10;99.10;;;;;;6300517;28;20613;-61
2022/05/25 07:25:39;;;;;;;3.20;2.73;;;24.60;97.70;;;;;;6300477;28;20372;-61
2022/05/25 07:28:43;;;;;;;4.90;3.30;;;24.60;96.60;;;;;;6300704;28;20234;-61
2022/05/25 07:31:50;;;;;;;4.33;2.97;;;24.60;95.90;;;;;;6300744;28;20231;-62
2022/05/25 07:35:02;;;;;;;3.60;3.30;;;24.70;95.70;;;;;;6300454;28;20241;-62
2022/05/25 07:38:07;;;;;;;5.50;3.00;;;24.90;95.20;;;;;;6295702;28;20234;-62
2022/05/25 07:41:13;;;;;;;4.47;3.60;;;25.10;94.50;;;;;;6300732;28;20235;-63
2022/05/25 07:44:19;;;;;;;6.10;5.60;;;25.60;93.80;;;;;;6300346;28;20678;-62
2022/05/25 07:47:23;;;;;;;5.70;5.10;;;26.10;93.10;;;;;;6300437;28;20702;-62
2022/05/25 07:50:26;;;;;;;6.70;5.50;;;27.70;91.00;;;;;;6300000;28;20544;-62
2022/05/25 07:56:52;;;;;;;6.17;5.63;;;29.10;81.80;;;;;;6297272;28;20226;-62
2022/05/25 07:59:55;;;;;;;6.77;5.50;;;28.80;80.80;;;;;;6299406;28;20248;-63
2022/05/25 08:06:19;;;;;;;9.03;5.87;;;27.40;83.40;;;;;;6299419;28;20230;-62
2022/05/25 08:09:22;;;;;;;10.23;6.20;;;26.50;86.00;;;;;;6298973;28;20241;-62
2022/05/25 08:12:27;;;;;;;7.90;7.17;;;26.10;88.60;;;;;;6299480;28;20234;-62
2022/05/25 08:15:33;;;;;;;9.17;8.33;;;26.00;89.40;;;;;;6299186;28;20237;-62
2022/05/25 08:18:36;;;;;;;10.67;9.70;;;26.10;89.20;;;;;;6295480;28;20302;-64
2022/05/25 08:21:40;;;;;;;8.57;7.87;;;26.10;88.50;;;;;;6299200;28;20241;-64
2022/05/25 08:24:50;;;;;;;9.33;8.53;;;26.00;88.90;;;;;;6299850;28;20226;-63
2022/05/25 08:27:54;;;;;;;9.10;8.30;;;26.00;89.50;;;;;;6283951;28;20258;-63
2022/05/25 08:30:58;;;;;;;9.13;8.33;;;25.80;89.30;;;;;;6274821;28;20241;-63
2022/05/25 08:34:01;;;;;;;8.60;8.00;;;25.40;89.20;;;;;;6276983;28;20237;-62
2022/05/25 08:37:04;;;;;;;8.30;7.60;;;25.00;90.70;;;;;;6294305;28;20242;-63
2022/05/25 08:40:11;;;;;;;8.47;7.87;;;24.90;91.00;;;;;;6299614;28;20245;-62
2022/05/25 08:43:19;;;;;;;9.37;8.57;;;24.90;91.30;;;;;;6299082;28;20310;-63
2022/05/25 08:46:25;;;;;;;9.10;8.30;;;24.80;91.30;;;;;;6299474;28;20341;-63
2022/05/25 08:49:32;;;;;;;9.40;8.63;;;24.60;92.00;;;;;;6298909;28;20313;-64
2022/05/25 08:52:37;;;;;;;8.13;7.40;;;24.50;92.20;;;;;;6299165;28;20227;-62
2022/05/25 08:55:52;;;;;;;9.00;8.20;;;24.60;91.80;;;;;;6298911;28;20227;-64
2022/05/25 08:59:04;;;;;;;8.40;7.67;;;24.60;91.60;;;;;;6298869;28;20249;-64
2022/05/25 09:02:15;;;;;;;7.07;6.57;;;24.70;91.90;;;;;;6298697;28;20245;-63
2022/05/25 09:05:26;;;;;;;10.77;9.90;;;25.40;91.20;;;;;;6299027;28;20258;-64
2022/05/25 09:08:38;;;;;;;9.30;8.50;;;26.00;90.90;;;;;;6299104;28;20694;-63
2022/05/25 09:11:47;;;;;;;8.60;8.03;;;26.00;91.90;;;;;;6298876;28;20231;-64
2022/05/25 09:14:57;;;;;;;9.67;8.80;;;26.40;90.60;;;;;;6300193;28;20226;-63
2022/05/25 09:18:03;;;;;;;10.97;10.17;;;26.90;90.30;;;;;;6303292;28;20228;-63
2022/05/25 09:21:07;;;;;;;8.07;7.37;;;26.00;90.60;;;;;;6303114;28;20690;-63
2022/05/25 09:24:15;;;;;;;10.60;9.67;;;26.30;90.70;;;;;;6303524;28;20217;-63
2022/05/25 09:27:25;;;;;;;8.73;8.03;;;26.70;89.50;;;;;;6302429;28;20222;-65
2022/05/25 09:30:31;;;;;;;9.47;8.50;;;27.00;85.90;;;;;;6303283;28;20547;-66
2022/05/25 09:33:41;;;;;;;9.40;8.70;;;27.10;85.00;;;;;;6303024;28;20241;-65
2022/05/25 09:36:49;;;;;;;10.87;10.00;;;27.20;85.10;;;;;;6299608;28;20226;-64
2022/05/25 09:39:53;;;;;;;9.80;9.00;;;26.70;85.50;;;;;;6302758;28;20668;-66
2022/05/25 09:42:57;;;;;;;9.00;8.27;;;26.60;85.30;;;;;;6298496;28;20234;-65
2022/05/25 09:46:09;;;;;;;11.13;10.20;;;26.90;85.30;;;;;;6302255;28;20226;-66
2022/05/25 09:49:25;;;;;;;11.23;10.33;;;26.40;86.90;;;;;;6302515;28;20388;-66
2022/05/25 09:52:39;;;;;;;9.57;8.83;;;26.20;86.40;;;;;;6302535;28;20280;-66
2022/05/25 09:55:46;;;;;;;9.50;8.70;;;26.40;85.90;;;;;;6300535;28;20241;-65
2022/05/25 09:58:53;;;;;;;11.30;10.43;;;26.60;85.20;;;;;;6302110;28;20253;-65
2022/05/25 10:01:58;;;;;;;9.57;8.87;;;26.40;85.80;;;;;;6301727;28;20280;-66
2022/05/25 10:05:14;;;;;;;10.60;9.30;;;26.50;86.30;;;;;;6301782;28;20256;-64
2022/05/25 10:08:32;;;;;;;11.77;10.87;;;27.00;84.50;;;;;;6301858;28;20223;-65
2022/05/25 10:11:42;;;;;;;10.60;9.80;;;26.40;86.00;;;;;;6301936;28;20706;-65
2022/05/25 10:14:56;;;;;;;11.17;10.13;;;25.90;87.10;;;;;;6302094;28;20235;-65
2022/05/25 10:18:01;;;;;;;9.77;8.97;;;25.50;88.80;;;;;;6301450;28;20226;-65
2022/05/25 10:21:07;;;;;;;11.73;10.77;;;25.90;88.50;;;;;;6301532;28;20247;-66
2022/05/25 10:24:16;;;;;;;10.67;9.70;;;26.30;86.20;;;;;;6301584;28;20297;-66
2022/05/25 10:27:25;;;;;;;10.30;9.30;;;26.60;85.10;;;;;;6301227;28;20245;-66
2022/05/25 10:37:25;;;;;;;12.17;11.00;;;26.60;83.60;;;;;;6301583;28;20230;-64
2022/05/25 10:40:32;;;;;;;11.53;10.60;;;26.70;83.00;;;;;;6300776;28;20227;-64
2022/05/25 10:43:39;;;;;;;11.70;10.83;;;26.80;83.70;;;;;;6301118;28;20321;-64
2022/05/25 10:46:52;;;;;;;15.53;13.90;;;27.10;82.50;;;;;;6291154;28;20644;-65
2022/05/25 10:49:56;;;;;;;11.20;10.17;;;26.60;83.60;;;;;;6300775;28;20230;-66
2022/05/25 10:53:10;;;;;;;12.17;10.93;;;26.40;85.20;;;;;;6300948;28;20301;-65
2022/05/25 10:56:25;;;;;;;12.03;11.10;;;26.50;85.00;;;;;;6300675;28;20236;-65
2022/05/25 10:59:36;;;;;;;11.53;10.63;;;26.50;82.70;;;;;;6301768;28;20235;-65
2022/05/25 11:03:07;;;;;;;11.37;10.23;;;26.40;82.90;;;;;;6300305;28;20222;-65
2022/05/25 11:06:36;;;;;;;11.50;10.60;;;26.70;83.60;;;;;;6351166;27;20218;-65
2022/05/25 11:09:57;;;;;;;13.10;10.23;;;26.90;84.10;;;;;;6350437;27;20232;-65
2022/05/25 11:13:29;;;;;;;9.30;8.60;;;26.90;84.00;;;;;;6351038;27;20584;-66
2022/05/25 11:16:46;;;;;;;11.47;10.57;;;27.00;83.40;;;;;;6350331;27;20221;-66
2022/05/25 11:20:08;;;;;;;11.80;10.90;;;27.00;84.10;;;;;;6349152;27;20690;-66
2022/05/25 11:23:25;;;;;;;11.60;10.43;;;27.10;82.10;;;;;;6348970;27;20226;-66
2022/05/25 11:26:45;;;;;;;10.50;9.47;;;27.20;81.60;;;;;;6348035;27;20221;-66
2022/05/25 11:30:05;;;;;;;12.33;11.13;;;27.50;81.20;;;;;;6349313;27;20233;-67
2022/05/25 11:33:24;;;;;;;11.07;10.00;;;27.60;80.80;;;;;;6350353;27;20217;-66
2022/05/25 11:37:12;;;;;;;9.33;8.53;;;27.30;82.10;;;;;;6348960;27;20867;-65
2022/05/25 11:40:28;;;;;;;11.60;10.43;;;27.30;82.60;;;;;;6350714;27;20393;-67
2022/05/25 11:43:54;;;;;;;9.50;8.70;;;27.30;81.30;;;;;;7029864;22;20231;-64
2022/05/25 11:47:07;;;;;;;11.67;10.57;;;27.10;81.70;;;;;;6257725;28;20643;-65
2022/05/25 11:50:26;;;;;;;11.10;10.33;;;26.50;83.20;;;;;;6273704;28;20235;-67
2022/05/25 11:54:04;;;;;;;10.00;9.30;;;26.80;83.10;;;;;;6275186;28;20289;-66
2022/05/25 11:57:17;;;;;;;10.60;9.80;;;27.00;82.90;;;;;;6264756;28;20231;-65
2022/05/25 12:00:38;;;;;;;13.00;11.80;;;27.70;82.00;;;;;;6275698;28;20300;-66
2022/05/25 12:04:12;;;;;;;11.27;10.40;;;27.50;81.50;;;;;;6275029;28;20250;-64
2022/05/25 12:07:39;;;;;;;11.63;9.90;;;27.80;80.50;;;;;;6275757;28;20318;-65
2022/05/25 12:10:45;;;;;;;11.20;10.20;;;28.00;80.80;;;;;;6275457;28;20231;-64
2022/05/25 12:13:55;;;;;;;11.03;10.13;;;28.40;79.60;;;;;;6275242;28;20227;-64
2022/05/25 12:17:07;;;;;;;11.30;10.43;;;28.10;79.40;;;;;;6275798;28;20238;-64
2022/05/25 12:20:17;;;;;;;10.20;9.50;;;27.30;81.80;;;;;;6276407;28;20602;-65
2022/05/25 12:23:25;;;;;;;11.40;10.50;;;27.00;83.00;;;;;;6276971;28;20284;-65
2022/05/25 12:26:33;;;;;;;11.73;10.57;;;26.70;84.80;;;;;;6276558;28;20328;-65
2022/05/25 12:29:41;;;;;;;6.63;5.33;;;26.40;86.20;;;;;;6276511;28;20274;-66
2022/05/25 12:32:45;;;;;;;5.73;5.13;;;25.50;88.40;;;;;;6275841;28;20807;-65
2022/05/25 12:35:49;;;;;;;6.87;3.23;;;24.50;94.50;;;;;;6275947;28;20308;-65
2022/05/25 12:38:53;;;;;;;5.40;3.67;;;23.40;94.90;;;;;;6276687;28;20625;-65
2022/05/25 12:42:32;;;;;;;4.00;2.83;;;22.70;96.10;;;;;;6275401;28;20441;-65
2022/05/25 12:49:32;;;;;;;3.93;1.63;;;21.70;99.80;;;;;;6327794;27;20647;-66
2022/05/25 12:52:43;;;;;;;2.20;2.00;;;21.90;99.90;;;;;;6331689;28;20670;-62
2022/05/25 12:55:54;;;;;;;2.33;1.70;;;22.10;99.90;;;;;;6332343;28;20241;-63
2022/05/25 12:59:01;;;;;;;4.13;2.17;;;22.30;99.90;;;;;;6331714;28;20238;-65
2022/05/25 13:02:29;;;;;;;3.70;2.07;;;22.30;99.80;;;;;;6320565;28;20254;-65
2022/05/25 13:05:59;;;;;;;5.77;2.20;;;22.50;99.90;;;;;;6306519;28;20242;-66
2022/05/25 13:09:04;;;;;;;6.67;2.40;;;22.70;99.90;;;;;;6292332;28;20227;-66
2022/05/25 13:12:59;;;;;;;2.20;1.73;;;22.90;99.90;;;;;;6305117;28;20237;-66
2022/05/25 13:16:03;;;;;;;2.00;1.57;;;23.00;99.90;;;;;;6306154;28;20240;-66
2022/05/25 13:19:16;;;;;;;3.90;2.00;;;23.00;99.90;;;;;;6305280;28;20553;-64
2022/05/25 13:22:27;;;;;;;2.30;1.80;;;22.90;99.90;;;;;;6303499;28;20246;-65
2022/05/25 13:25:39;;;;;;;2.40;1.83;;;22.80;99.90;;;;;;6304321;28;20270;-65
2022/05/25 13:28:49;;;;;;;1.80;1.30;;;22.90;99.90;;;;;;6281600;28;20713;-65
2022/05/25 13:31:58;;;;;;;3.63;1.50;;;23.00;99.90;;;;;;6303377;28;20247;-66
2022/05/25 13:35:14;;;;;;;2.40;1.23;;;23.00;99.60;;;;;;6304176;28;20559;-66
2022/05/25 13:38:25;;;;;;;4.93;1.67;;;23.10;99.90;;;;;;6302715;28;20243;-67
2022/05/25 13:41:32;;;;;;;5.00;1.50;;;23.10;99.90;;;;;;6302725;28;20231;-66
2022/05/25 13:44:42;;;;;;;3.03;1.37;;;23.00;99.90;;;;;;6316635;28;20235;-66
2022/05/25 13:47:51;;;;;;;3.77;1.47;;;22.90;99.90;;;;;;6304790;28;20580;-64
2022/05/25 13:50:58;;;;;;;2.67;1.20;;;22.60;99.90;;;;;;6302103;28;20237;-64
2022/05/25 13:54:01;;;;;;;1.80;0.97;;;22.20;99.80;;;;;;6301819;28;20231;-66
2022/05/25 13:57:32;;;;;;;2.73;1.40;;;21.90;99.90;;;;;;6293381;28;20281;-65
2022/05/25 14:00:41;;;;;;;1.53;0.70;;;21.90;99.90;;;;;;6302596;28;20227;-65
2022/05/25 14:03:51;;;;;;;3.53;1.20;;;22.00;99.90;;;;;;6302748;28;20227;-65
2022/05/25 14:06:56;;;;;;;2.40;1.27;;;22.20;99.90;;;;;;6302139;28;20235;-64
2022/05/25 14:13:28;;;;;;;2.37;1.30;;;22.00;99.90;;;;;;6305061;28;20245;-65
2022/05/25 14:16:32;;;;;;;3.03;1.83;;;21.90;99.90;;;;;;6303609;28;20227;-64
2022/05/25 14:19:47;;;;;;;1.50;1.40;;;21.80;99.90;;;;;;6302269;28;20234;-62
2022/05/25 14:22:53;;;;;;;1.73;1.13;;;21.70;99.90;;;;;;6301732;28;20695;-63
2022/05/25 14:25:59;;;;;;;0.60;0.40;;;21.60;99.90;;;;;;6301120;28;20257;-63
2022/05/25 14:29:06;;;;;;;2.57;0.77;;;21.40;99.90;;;;;;6301240;28;20687;-63
2022/05/25 14:32:15;;;;;;;4.33;0.67;;;21.20;99.90;;;;;;6301764;28;20279;-66
2022/05/25 14:35:20;;;;;;;1.37;0.90;;;20.90;99.70;;;;;;6297740;28;20216;-63
2022/05/25 14:38:27;;;;;;;2.30;1.00;;;20.70;99.90;;;;;;6300862;28;20227;-65
2022/05/25 14:41:53;;;;;;;3.30;0.60;;;20.50;99.90;;;;;;6300590;28;20540;-64
2022/05/25 14:44:57;;;;;;;0.90;0.53;;;20.30;99.90;;;;;;6301279;28;20243;-61
2022/05/25 14:48:09;;;;;;;0.90;0.63;;;20.20;99.90;;;;;;6300559;28;20229;-63
2022/05/25 14:51:16;;;;;;;1.90;0.73;;;20.10;99.90;;;;;;6300915;28;20235;-62
2022/05/25 14:54:24;;;;;;;1.40;0.60;;;20.00;99.90;;;;;;6305928;28;20191;-64
2022/05/25 14:57:27;;;;;;;3.50;0.63;;;20.10;99.90;;;;;;6304404;28;20230;-64
2022/05/25 15:00:30;;;;;;;1.17;0.70;;;20.30;99.90;;;;;;6321706;28;20237;-64
2022/05/25 15:03:37;;;;;;;1.10;0.70;;;20.50;99.90;;;;;;6300685;28;20680;-63
2022/05/25 15:06:57;;;;;;;1.73;1.07;;;20.80;99.90;;;;;;6301054;28;20314;-64
2022/05/25 15:10:13;;;;;;;1.20;0.60;;;21.20;99.90;;;;;;6300160;28;20277;-63
2022/05/25 15:20:27;;;;;;;1.80;0.80;;;22.00;99.90;;;;;;6300072;28;20236;-63
2022/05/25 15:23:34;;;;;;;1.77;0.80;;;22.20;99.90;;;;;;6299797;28;20235;-67
2022/05/25 15:26:50;;;;;;;1.60;0.67;;;22.00;99.90;;;;;;6299752;28;20269;-63
2022/05/25 15:29:54;;;;;;;1.63;0.97;;;21.90;99.90;;;;;;6299870;28;20306;-63
2022/05/25 15:32:58;;;;;;;2.47;1.10;;;21.90;99.90;;;;;;6299779;28;20231;-63
2022/05/25 15:36:06;;;;;;;2.30;0.80;;;21.80;99.90;;;;;;6325081;27;20237;-63
2022/05/25 15:39:10;;;;;;;5.07;1.10;;;21.90;99.90;;;;;;6325172;28;20209;-63
2022/05/25 15:42:14;;;;;;;1.70;0.80;;;21.80;99.90;;;;;;6325168;28;20222;-63
2022/05/25 15:45:19;;;;;;;1.77;0.80;;;21.80;99.90;;;;;;6324679;28;20672;-65
2022/05/25 15:48:24;;;;;;;0.90;0.73;;;21.90;99.90;;;;;;6324989;28;20563;-64
2022/05/25 15:51:29;;;;;;;2.07;0.90;;;22.00;99.90;;;;;;6325634;28;20234;-65
2022/05/25 15:54:34;;;;;;;1.97;1.77;;;21.90;99.80;;;;;;6326437;28;20237;-64
2022/05/25 15:57:39;;;;;;;1.90;1.80;;;21.90;99.90;;;;;;6325350;28;20231;-64
2022/05/25 16:00:45;;;;;;;1.17;0.90;;;22.10;99.90;;;;;;6323082;28;20224;-64
2022/05/25 16:03:51;;;;;;;2.80;1.30;;;21.90;99.90;;;;;;6316973;28;20230;-64
2022/05/25 16:06:55;;;;;;;2.20;1.00;;;21.90;99.90;;;;;;6326710;28;20234;-64
2022/05/25 16:09:57;;;;;;;2.20;1.10;;;21.90;99.90;;;;;;6326540;28;20286;-64
2022/05/25 16:13:02;;;;;;;1.37;1.20;;;21.90;99.90;;;;;;6325635;28;20241;-64
2022/05/25 16:16:06;;;;;;;0.90;0.70;;;21.90;99.90;;;;;;6324798;28;20246;-64
2022/05/25 16:19:10;;;;;;;1.40;1.30;;;21.80;99.90;;;;;;6324595;28;20230;-64
2022/05/25 16:22:13;;;;;;;1.97;1.10;;;21.50;99.90;;;;;;6324183;28;20226;-64
2022/05/25 16:25:22;;;;;;;0.87;0.70;;;21.40;99.90;;;;;;6323923;28;20226;-64
2022/05/25 16:28:26;;;;;;;1.50;1.07;;;21.30;99.90;;;;;;6324302;28;20667;-64
2022/05/25 16:31:32;;;;;;;1.47;1.07;;;21.10;99.90;;;;;;6324314;28;20229;-64
2022/05/25 16:34:36;;;;;;;2.40;1.13;;;21.00;99.90;;;;;;6306313;28;20230;-64
2022/05/25 16:37:40;;;;;;;1.20;1.00;;;21.00;99.90;;;;;;6323711;28;20218;-64
2022/05/25 16:40:43;;;;;;;1.47;1.00;;;20.70;99.90;;;;;;6324424;28;20229;-63
2022/05/25 16:43:48;;;;;;;1.70;1.50;;;20.60;99.90;;;;;;6324036;28;20244;-63
2022/05/25 16:46:52;;;;;;;3.67;1.37;;;20.40;99.90;;;;;;6324304;28;20219;-63
2022/05/25 16:49:55;;;;;;;4.40;1.43;;;20.40;99.90;;;;;;6307872;28;20227;-63
2022/05/25 16:52:58;;;;;;;2.23;1.40;;;20.40;99.90;;;;;;6299121;28;20231;-66
2022/05/25 16:56:05;;;;;;;2.23;1.50;;;20.40;99.90;;;;;;6315786;28;20249;-61